Time;durP1;ratioP1;P1;durP2;ratioP2;P2;SDS_P1;SDS_P2;PMS_P1;PMS_P2;Temp;Humidity;BMP_temperature;BMP_pressure;BME280_temperature;BME280_humidity;BME280_pressure;Samples;Min_cycle;Max_cycle;Signal;HPM_P1;HPM_P2
2024/03/13 00:00:28;;;;;;;23.55;14.75;;;;;;;9.53;100.00;99721.44;5135766;27;20048;-47
2024/03/13 00:02:58;;;;;;;24.65;14.63;;;;;;;9.54;100.00;99723.16;5135665;27;20136;-46
2024/03/13 00:05:29;;;;;;;24.27;14.93;;;;;;;9.54;100.00;99720.47;5135626;27;20048;-47
2024/03/13 00:07:57;;;;;;;22.85;14.82;;;;;;;9.60;100.00;99722.75;5135382;27;20148;-46
2024/03/13 00:10:27;;;;;;;21.70;14.48;;;;;;;9.62;100.00;99720.84;5135882;27;20047;-47
2024/03/13 00:12:55;;;;;;;23.33;14.73;;;;;;;9.47;100.00;99727.19;5135323;27;20096;-47
2024/03/13 00:15:23;;;;;;;20.92;14.57;;;;;;;9.50;100.00;99719.00;5135501;27;20047;-47
2024/03/13 00:17:51;;;;;;;22.90;14.68;;;;;;;9.46;100.00;99721.00;5135574;27;20063;-47
2024/03/13 00:20:20;;;;;;;23.98;14.70;;;;;;;9.51;100.00;99726.03;5135461;27;20075;-45
2024/03/13 00:22:53;;;;;;;23.52;14.10;;;;;;;9.50;100.00;99723.47;5135112;27;20061;-46
2024/03/13 00:25:21;;;;;;;25.35;14.23;;;;;;;9.66;100.00;99716.19;5135509;27;20047;-47
2024/03/13 00:27:50;;;;;;;21.60;14.05;;;;;;;9.65;100.00;99712.69;5135127;27;20053;-46
2024/03/13 00:30:18;;;;;;;23.67;14.25;;;;;;;9.67;100.00;99705.44;5135100;27;20043;-45
2024/03/13 00:32:47;;;;;;;23.27;14.27;;;;;;;9.54;100.00;99722.28;5135245;27;20043;-46
2024/03/13 00:35:15;;;;;;;21.42;13.82;;;;;;;9.54;100.00;99728.47;5134766;27;20449;-46
2024/03/13 00:37:43;;;;;;;23.17;15.00;;;;;;;9.62;100.00;99714.69;5134732;27;20523;-46
2024/03/13 00:40:14;;;;;;;18.70;12.63;;;;;;;9.59;100.00;99712.22;5134951;27;20054;-45
2024/03/13 00:42:43;;;;;;;21.73;14.15;;;;;;;9.58;100.00;99723.81;5134817;27;20479;-48
2024/03/13 00:45:12;;;;;;;21.38;13.80;;;;;;;9.70;100.00;99710.56;5134828;27;20465;-46
2024/03/13 00:47:40;;;;;;;22.88;14.13;;;;;;;9.57;100.00;99714.13;5134548;27;20047;-46
2024/03/13 00:50:12;;;;;;;20.67;14.07;;;;;;;9.53;100.00;99715.25;5134850;27;20047;-46
2024/03/13 00:52:41;;;;;;;25.42;14.45;;;;;;;9.44;100.00;99698.06;5134691;27;20043;-46
2024/03/13 00:55:10;;;;;;;21.35;13.50;;;;;;;9.36;100.00;99716.34;5133546;27;20073;-46
2024/03/13 00:57:42;;;;;;;22.10;14.07;;;;;;;9.48;100.00;99714.72;5134390;27;20483;-46
2024/03/13 01:00:14;;;;;;;19.98;13.57;;;;;;;9.37;100.00;99718.06;5134487;27;20061;-45
2024/03/13 01:02:43;;;;;;;20.38;13.55;;;;;;;9.35;100.00;99717.28;5134557;27;20051;-47
2024/03/13 01:05:13;;;;;;;21.13;12.98;;;;;;;9.56;100.00;99723.94;5134264;27;20070;-45
2024/03/13 01:07:42;;;;;;;20.65;13.43;;;;;;;9.49;100.00;99717.28;5134184;27;20088;-47
2024/03/13 01:10:10;;;;;;;22.60;13.95;;;;;;;9.46;100.00;99720.16;5134422;27;20046;-48
2024/03/13 01:12:41;;;;;;;23.95;14.82;;;;;;;9.46;100.00;99712.16;5134316;27;20503;-46
2024/03/13 01:15:09;;;;;;;22.73;13.35;;;;;;;9.43;100.00;99717.66;5134397;27;20039;-47
2024/03/13 01:17:38;;;;;;;21.77;13.73;;;;;;;9.43;100.00;99713.19;5134345;27;20051;-47
2024/03/13 01:20:09;;;;;;;23.45;14.60;;;;;;;9.46;100.00;99707.69;5134212;27;20116;-46
2024/03/13 01:22:40;;;;;;;22.17;13.63;;;;;;;9.52;100.00;99703.75;5134158;27;20043;-46
2024/03/13 01:25:09;;;;;;;20.48;13.32;;;;;;;9.39;100.00;99716.16;5133808;27;20067;-45
2024/03/13 01:27:38;;;;;;;22.45;13.32;;;;;;;9.62;100.00;99707.53;5134591;27;20456;-48
2024/03/13 01:30:09;;;;;;;21.75;13.95;;;;;;;9.44;100.00;99703.41;5134752;27;20083;-46
2024/03/13 01:32:39;;;;;;;20.88;13.57;;;;;;;9.35;100.00;99714.63;5134536;27;20047;-46
2024/03/13 01:35:09;;;;;;;21.95;13.38;;;;;;;9.35;100.00;99701.31;5134694;27;20057;-47
2024/03/13 01:40:27;;;;;;;23.42;14.23;;;;;;;9.44;100.00;99714.91;5134647;27;20119;-47
2024/03/13 01:55:10;;;;;;;20.67;13.60;;;;;;;9.20;100.00;99708.47;5117255;27;20218;-45
2024/03/13 01:58:08;;;;;;;22.95;13.88;;;;;;;9.33;100.00;99712.06;5133577;27;20051;-46
2024/03/13 02:03:26;;;;;;;23.25;13.68;;;;;;;9.14;100.00;99701.72;5133733;27;20047;-45
2024/03/13 02:05:57;;;;;;;22.90;14.50;;;;;;;9.12;100.00;99706.31;5133278;27;20096;-45
2024/03/13 02:08:26;;;;;;;22.40;13.52;;;;;;;8.99;100.00;99718.66;5133225;27;20051;-45
2024/03/13 02:10:57;;;;;;;22.63;13.52;;;;;;;9.10;100.00;99700.22;5133250;27;20047;-44
2024/03/13 02:13:41;;;;;;;21.55;12.95;;;;;;;8.99;100.00;99701.84;5146007;27;20785;-44
2024/03/13 02:16:10;;;;;;;22.15;13.27;;;;;;;9.15;100.00;99711.41;5129983;27;20047;-45
2024/03/13 02:18:39;;;;;;;21.42;13.70;;;;;;;9.02;100.00;99705.16;5129750;27;20408;-46
2024/03/13 02:21:08;;;;;;;21.95;13.63;;;;;;;9.02;100.00;99699.84;5129605;28;20050;-45
2024/03/13 02:23:36;;;;;;;22.38;13.80;;;;;;;9.02;100.00;99701.66;5129162;28;20047;-44
2024/03/13 02:26:04;;;;;;;21.55;13.75;;;;;;;9.16;100.00;99699.81;5111198;28;20519;-47
2024/03/13 02:28:33;;;;;;;21.33;13.05;;;;;;;9.11;100.00;99701.94;5111239;28;20043;-44
2024/03/13 02:31:01;;;;;;;22.33;14.18;;;;;;;9.13;100.00;99696.50;5111369;28;20130;-45
2024/03/13 02:33:30;;;;;;;23.70;13.50;;;;;;;9.15;100.00;99703.44;5111371;28;20058;-47
2024/03/13 02:35:59;;;;;;;22.45;13.77;;;;;;;9.08;100.00;99711.94;5111810;28;20412;-45
2024/03/13 02:38:28;;;;;;;20.55;13.25;;;;;;;9.06;100.00;99704.00;5111437;28;20047;-45
2024/03/13 02:40:56;;;;;;;23.10;13.63;;;;;;;9.26;100.00;99717.88;5111157;28;20109;-50
2024/03/13 02:43:25;;;;;;;21.45;12.82;;;;;;;9.24;100.00;99719.78;5111118;28;20043;-44
2024/03/13 02:45:53;;;;;;;23.95;13.02;;;;;;;9.20;100.00;99710.28;5110900;28;20128;-47
2024/03/13 02:48:22;;;;;;;21.60;13.45;;;;;;;9.26;100.00;99702.75;5110859;28;20040;-46
2024/03/13 02:50:51;;;;;;;20.60;13.50;;;;;;;9.36;100.00;99719.00;5110689;28;20039;-46
2024/03/13 02:53:19;;;;;;;20.52;12.70;;;;;;;9.17;100.00;99720.19;5110501;28;20078;-45
2024/03/13 02:55:48;;;;;;;20.55;13.45;;;;;;;9.21;100.00;99714.66;5110668;28;20051;-46
2024/03/13 02:58:16;;;;;;;21.70;13.23;;;;;;;9.29;100.00;99720.34;5110565;28;20146;-45
2024/03/13 03:00:45;;;;;;;19.42;12.57;;;;;;;9.41;100.00;99719.56;5110526;28;20108;-55
2024/03/13 03:03:14;;;;;;;19.23;12.07;;;;;;;9.32;100.00;99717.50;5110482;28;20183;-46
2024/03/13 03:05:42;;;;;;;20.83;12.85;;;;;;;9.40;100.00;99720.53;5110238;28;20043;-47
2024/03/13 03:08:11;;;;;;;20.15;12.15;;;;;;;9.40;100.00;99720.53;5110428;28;20055;-45
2024/03/13 03:10:40;;;;;;;22.67;12.93;;;;;;;9.29;100.00;99725.69;5110606;28;20040;-47
2024/03/13 03:13:10;;;;;;;21.00;12.65;;;;;;;9.37;100.00;99724.25;5110078;28;20055;-48
2024/03/13 03:15:39;;;;;;;19.67;12.10;;;;;;;9.37;100.00;99723.41;5110488;28;20050;-49
2024/03/13 03:18:10;;;;;;;21.52;12.55;;;;;;;9.48;100.00;99728.03;5110073;28;20050;-46
2024/03/13 03:20:40;;;;;;;20.67;12.40;;;;;;;9.48;100.00;99720.03;5110724;28;20040;-47
2024/03/13 03:23:09;;;;;;;19.58;11.43;;;;;;;9.34;100.00;99724.41;5107392;28;20044;-45
2024/03/13 03:25:37;;;;;;;22.33;12.27;;;;;;;9.44;100.00;99725.53;5096574;28;20143;-46
2024/03/13 03:28:06;;;;;;;21.38;12.60;;;;;;;9.40;100.00;99718.72;5096473;28;20163;-46
2024/03/13 03:30:41;;;;;;;21.30;12.60;;;;;;;9.41;100.00;99724.91;5096396;28;20050;-46
2024/03/13 03:33:12;;;;;;;21.33;12.90;;;;;;;9.39;100.00;99726.81;5097409;28;20048;-47
2024/03/13 03:35:41;;;;;;;20.05;12.43;;;;;;;9.24;100.00;99723.28;5096775;28;20044;-47
2024/03/13 03:38:09;;;;;;;21.88;13.05;;;;;;;9.25;100.00;99729.47;5096345;28;20436;-48
2024/03/13 03:40:37;;;;;;;21.85;13.25;;;;;;;9.27;100.00;99732.91;5096229;28;20075;-46
2024/03/13 03:43:05;;;;;;;21.48;12.70;;;;;;;9.34;100.00;99734.22;5096118;28;20043;-46
2024/03/13 03:45:34;;;;;;;23.27;13.18;;;;;;;9.42;100.00;99731.94;5095982;28;20239;-46
2024/03/13 03:48:02;;;;;;;22.63;13.73;;;;;;;9.37;100.00;99728.72;5096144;28;20126;-47
2024/03/13 03:50:39;;;;;;;21.65;13.27;;;;;;;9.40;100.00;99734.69;5097388;28;20103;-45
2024/03/13 03:53:07;;;;;;;18.63;12.43;;;;;;;9.36;100.00;99737.63;5095870;28;20480;-47
2024/03/13 03:55:36;;;;;;;23.85;12.48;;;;;;;9.25;100.00;99730.31;5095978;28;20047;-46
2024/03/13 03:58:06;;;;;;;22.83;14.57;;;;;;;9.27;100.00;99733.78;5095665;28;20044;-46
2024/03/13 04:00:35;;;;;;;24.17;13.98;;;;;;;9.22;100.00;99737.66;5096191;28;20044;-48
2024/03/13 04:03:05;;;;;;;20.73;13.25;;;;;;;9.29;100.00;99737.19;5096084;28;20044;-47
2024/03/13 04:05:34;;;;;;;25.70;14.25;;;;;;;9.34;100.00;99737.72;5095869;28;20130;-45
2024/03/13 04:08:02;;;;;;;22.38;13.40;;;;;;;9.32;100.00;99741.44;5095741;28;20050;-45
2024/03/13 04:10:31;;;;;;;23.23;14.20;;;;;;;9.34;100.00;99750.19;5095563;28;20039;-46
2024/03/13 04:13:00;;;;;;;23.40;14.80;;;;;;;9.38;100.00;99738.41;5095503;28;20445;-46
2024/03/13 04:15:28;;;;;;;22.65;14.18;;;;;;;9.46;100.00;99734.31;5095685;28;20048;-47
2024/03/13 04:17:57;;;;;;;23.88;14.57;;;;;;;9.38;100.00;99731.28;5095485;28;20484;-45
2024/03/13 04:20:26;;;;;;;23.27;13.85;;;;;;;9.52;100.00;99743.69;5095578;28;20096;-46
2024/03/13 04:22:54;;;;;;;22.77;14.25;;;;;;;9.51;100.00;99736.66;5095223;28;20098;-46
2024/03/13 04:25:24;;;;;;;22.05;14.15;;;;;;;9.35;100.00;99730.59;5095225;28;20050;-45
2024/03/13 04:27:54;;;;;;;23.13;14.05;;;;;;;9.49;100.00;99743.06;5095501;28;20044;-46
2024/03/13 04:30:25;;;;;;;23.85;15.02;;;;;;;9.44;100.00;99746.00;5095755;28;20044;-47
2024/03/13 04:32:54;;;;;;;23.15;14.63;;;;;;;9.49;100.00;99740.38;5095401;28;20052;-46
2024/03/13 04:35:22;;;;;;;22.00;14.38;;;;;;;9.28;100.00;99742.59;5094183;28;20075;-45
2024/03/13 04:37:51;;;;;;;21.95;13.50;;;;;;;9.36;100.00;99748.28;5094904;28;20048;-46
2024/03/13 04:40:19;;;;;;;23.30;14.48;;;;;;;9.40;100.00;99747.16;5095110;28;20055;-44
2024/03/13 04:42:48;;;;;;;23.48;14.40;;;;;;;9.28;100.00;99742.59;5095013;28;20071;-45
2024/03/13 04:45:17;;;;;;;23.08;13.77;;;;;;;9.13;100.00;99741.75;5078348;28;20044;-46
2024/03/13 04:47:45;;;;;;;22.23;14.65;;;;;;;9.21;100.00;99742.13;5094824;28;20054;-46
2024/03/13 04:50:13;;;;;;;23.00;14.50;;;;;;;9.28;100.00;99737.28;5094644;28;20126;-46
2024/03/13 04:52:42;;;;;;;22.35;13.45;;;;;;;9.41;100.00;99751.50;5094979;28;20050;-46
2024/03/13 04:55:10;;;;;;;22.65;14.50;;;;;;;9.37;100.00;99750.00;5094931;28;20047;-46
2024/03/13 04:57:40;;;;;;;22.90;14.45;;;;;;;9.06;100.00;99746.56;5094595;28;20055;-45
2024/03/13 05:00:09;;;;;;;24.05;15.05;;;;;;;9.25;100.00;99751.63;5094550;28;20052;-45
2024/03/13 05:02:38;;;;;;;24.60;15.25;;;;;;;8.96;100.00;99756.06;5094882;28;20044;-46
2024/03/13 05:05:12;;;;;;;26.00;15.95;;;;;;;9.18;100.00;99750.31;5094838;28;20047;-45
2024/03/13 05:07:41;;;;;;;28.48;17.05;;;;;;;9.09;100.00;99751.72;5094635;28;20055;-46
2024/03/13 05:10:10;;;;;;;24.83;15.50;;;;;;;9.25;100.00;99753.41;5094565;28;20051;-46
2024/03/13 05:12:39;;;;;;;29.15;16.27;;;;;;;9.15;100.00;99758.47;5094358;28;20055;-47
2024/03/13 05:15:08;;;;;;;27.38;16.98;;;;;;;9.02;100.00;99758.38;5094318;28;20499;-45
2024/03/13 05:17:36;;;;;;;24.92;15.65;;;;;;;8.89;100.00;99760.09;5094300;28;20077;-47
2024/03/13 05:20:07;;;;;;;24.08;15.35;;;;;;;8.95;100.00;99765.00;5094593;28;20044;-45
2024/03/13 05:22:35;;;;;;;27.77;16.77;;;;;;;9.01;100.00;99761.13;5094704;28;20081;-46
2024/03/13 05:25:09;;;;;;;26.73;15.48;;;;;;;9.09;100.00;99764.19;5094456;28;20136;-46
2024/03/13 05:27:37;;;;;;;25.92;16.58;;;;;;;8.92;100.00;99770.53;5094910;28;20116;-45
2024/03/13 05:30:06;;;;;;;26.30;15.30;;;;;;;9.00;100.00;99768.25;5094019;28;20039;-45
2024/03/13 05:32:35;;;;;;;27.00;16.52;;;;;;;9.00;100.00;99778.03;5094339;28;20047;-47
2024/03/13 05:35:06;;;;;;;26.90;16.30;;;;;;;9.12;100.00;99777.28;5094228;28;20052;-46
2024/03/13 05:37:35;;;;;;;27.55;16.42;;;;;;;9.03;100.00;99780.50;5094401;28;20044;-47
2024/03/13 05:40:12;;;;;;;25.92;15.48;;;;;;;9.18;100.00;99779.59;5094066;28;20400;-46
2024/03/13 05:42:41;;;;;;;24.40;16.23;;;;;;;9.23;100.00;99780.13;5094905;28;20672;-46
2024/03/13 05:45:10;;;;;;;24.30;15.18;;;;;;;9.28;100.00;99782.53;5093932;28;20449;-47
2024/03/13 05:47:40;;;;;;;24.35;15.63;;;;;;;9.28;100.00;99788.69;5092707;28;20054;-48
2024/03/13 05:50:09;;;;;;;23.90;15.00;;;;;;;9.33;100.00;99791.06;5093615;28;20089;-46
2024/03/13 05:52:38;;;;;;;27.27;15.10;;;;;;;9.40;100.00;99787.94;5093668;28;20071;-47
2024/03/13 05:55:07;;;;;;;23.77;14.77;;;;;;;9.50;100.00;99788.22;5093480;28;20512;-46
2024/03/13 05:57:38;;;;;;;25.92;14.25;;;;;;;9.57;100.00;99788.69;5093509;28;20123;-46
2024/03/13 06:00:09;;;;;;;26.10;14.95;;;;;;;9.55;100.00;99788.75;5094125;28;20116;-47
2024/03/13 06:02:38;;;;;;;24.83;14.55;;;;;;;9.57;100.00;99800.19;5093861;28;20048;-47
2024/03/13 06:05:11;;;;;;;23.40;14.23;;;;;;;9.52;100.00;99799.59;5093432;28;20047;-45
2024/03/13 06:07:40;;;;;;;23.27;14.50;;;;;;;9.51;100.00;99808.56;5093881;28;20114;-48
2024/03/13 06:10:10;;;;;;;22.17;14.57;;;;;;;9.46;100.00;99802.69;5093232;28;20075;-47
2024/03/13 06:12:39;;;;;;;23.17;14.82;;;;;;;9.64;100.00;99797.97;5093499;28;20119;-48
2024/03/13 06:15:07;;;;;;;24.60;15.02;;;;;;;9.53;100.00;99800.47;5093266;28;20051;-48
2024/03/13 06:17:36;;;;;;;26.13;14.00;;;;;;;9.60;100.00;99807.97;5093409;28;20499;-46
2024/03/13 06:20:11;;;;;;;25.98;14.35;;;;;;;9.63;100.00;99805.09;5093350;28;20047;-46
2024/03/13 06:22:40;;;;;;;22.33;14.13;;;;;;;9.74;100.00;99807.94;5094441;28;20097;-47
2024/03/13 06:25:09;;;;;;;22.90;14.00;;;;;;;9.75;100.00;99804.34;5093543;28;20157;-45
2024/03/13 06:27:37;;;;;;;23.33;14.98;;;;;;;9.80;100.00;99801.38;5093483;28;20043;-46
2024/03/13 06:30:06;;;;;;;24.27;14.65;;;;;;;9.85;100.00;99801.94;5093606;28;20050;-48
2024/03/13 06:32:34;;;;;;;26.38;14.25;;;;;;;10.00;100.00;99808.09;5093071;28;20047;-45
2024/03/13 06:35:04;;;;;;;21.98;13.52;;;;;;;9.73;100.00;99800.91;5093472;28;20079;-46
2024/03/13 06:37:33;;;;;;;24.38;14.38;;;;;;;9.89;100.00;99816.78;5093723;28;20052;-46
2024/03/13 06:40:03;;;;;;;23.95;14.85;;;;;;;10.09;100.00;99810.16;5093318;28;20533;-49
2024/03/13 06:42:32;;;;;;;25.70;14.93;;;;;;;9.96;100.00;99809.25;5093582;28;20051;-47
2024/03/13 06:45:00;;;;;;;25.50;13.85;;;;;;;10.04;100.00;99815.78;5093227;28;20046;-46
2024/03/13 06:47:29;;;;;;;22.70;13.35;;;;;;;10.28;100.00;99809.84;5092972;28;20047;-46
2024/03/13 06:50:01;;;;;;;24.70;14.13;;;;;;;10.44;100.00;99812.34;5093241;28;20104;-46
2024/03/13 06:52:29;;;;;;;20.70;13.07;;;;;;;10.51;100.00;99819.81;5093224;28;20043;-47
2024/03/13 06:54:58;;;;;;;20.02;11.93;;;;;;;10.45;100.00;99812.25;5092607;28;20209;-46
2024/03/13 06:57:29;;;;;;;24.95;13.07;;;;;;;10.67;100.00;99813.47;5092721;28;20108;-47
2024/03/13 06:59:57;;;;;;;21.38;13.30;;;;;;;10.84;100.00;99822.03;5095733;28;20051;-47
2024/03/13 07:02:28;;;;;;;21.23;12.27;;;;;;;10.69;100.00;99820.41;5097219;28;20054;-45
2024/03/13 07:04:56;;;;;;;21.77;13.23;;;;;;;11.02;100.00;99819.09;5097067;28;20079;-46
2024/03/13 07:07:25;;;;;;;20.50;12.00;;;;;;;10.99;100.00;99820.13;5098443;28;20050;-45
2024/03/13 07:09:54;;;;;;;22.27;12.82;;;;;;;11.22;100.00;99821.22;5096651;28;20094;-46
2024/03/13 07:12:24;;;;;;;20.63;13.13;;;;;;;11.23;100.00;99822.94;5096393;28;20096;-44
2024/03/13 07:14:53;;;;;;;19.27;12.82;;;;;;;11.22;100.00;99826.56;5096737;28;20132;-46
2024/03/13 07:17:21;;;;;;;21.85;12.35;;;;;;;11.38;100.00;99821.84;5096629;28;20054;-46
2024/03/13 07:19:50;;;;;;;23.15;11.95;;;;;;;11.64;100.00;99821.81;5096403;28;20044;-46
2024/03/13 07:22:18;;;;;;;19.60;12.02;;;;;;;11.59;100.00;99824.84;5096563;28;20084;-47
2024/03/13 07:24:47;;;;;;;18.75;12.23;;;;;;;11.59;100.00;99830.19;5096757;28;20071;-45
2024/03/13 07:27:15;;;;;;;18.52;11.55;;;;;;;11.91;100.00;99821.69;5096279;28;20039;-46
2024/03/13 07:29:43;;;;;;;20.45;12.30;;;;;;;11.80;100.00;99826.97;5096356;28;20071;-46
2024/03/13 07:32:14;;;;;;;20.83;12.20;;;;;;;12.08;100.00;99831.19;5095912;28;20073;-46
2024/03/13 07:34:42;;;;;;;19.00;11.60;;;;;;;12.13;100.00;99839.69;5096288;28;20043;-45
2024/03/13 07:37:11;;;;;;;20.08;11.80;;;;;;;12.08;100.00;99837.38;5095917;28;20048;-45
2024/03/13 07:39:39;;;;;;;20.08;11.90;;;;;;;12.11;100.00;99853.19;5096182;28;20048;-46
2024/03/13 07:42:07;;;;;;;18.67;12.07;;;;;;;12.53;100.00;99848.28;5096037;28;20131;-49
2024/03/13 07:44:36;;;;;;;19.85;12.10;;;;;;;12.50;100.00;99852.06;5095965;28;20051;-45
2024/03/13 07:47:04;;;;;;;20.52;11.90;;;;;;;12.49;100.00;99842.34;5095712;28;20044;-48
2024/03/13 07:49:32;;;;;;;17.75;11.30;;;;;;;12.52;100.00;99847.44;5095739;28;20044;-45
2024/03/13 07:52:02;;;;;;;18.75;10.65;;;;;;;12.69;100.00;99853.38;5095449;28;20054;-46
2024/03/13 07:54:31;;;;;;;16.83;11.00;;;;;;;12.70;100.00;99860.41;5095869;28;20093;-48
2024/03/13 07:56:59;;;;;;;16.92;11.23;;;;;;;12.60;100.00;99857.59;5095512;28;20043;-45
2024/03/13 07:59:27;;;;;;;20.27;12.15;;;;;;;12.69;100.00;99861.41;5095560;28;20093;-49
2024/03/13 08:01:55;;;;;;;18.30;11.10;;;;;;;12.63;100.00;99867.19;5095838;28;20126;-45
2024/03/13 08:04:24;;;;;;;18.23;11.10;;;;;;;12.63;100.00;99869.88;5095536;28;20058;-46
2024/03/13 08:06:53;;;;;;;19.92;11.60;;;;;;;12.73;100.00;99863.72;5095184;28;20039;-45
2024/03/13 08:09:39;;;;;;;24.65;11.20;;;;;;;12.96;100.00;99867.34;5097861;28;20155;-46
2024/03/13 08:12:25;;;;;;;19.77;11.02;;;;;;;12.99;100.00;99861.75;5097749;28;20059;-48
2024/03/13 08:15:11;;;;;;;31.88;12.27;;;;;;;13.29;100.00;99866.59;5097663;28;20044;-46
2024/03/13 08:17:58;;;;;;;27.35;12.63;;;;;;;13.51;100.00;99863.13;5097685;28;20050;-47
2024/03/13 08:20:45;;;;;;;24.10;12.48;;;;;;;13.38;100.00;99863.22;5097943;28;20066;-46
2024/03/13 08:23:31;;;;;;;22.98;11.30;;;;;;;13.41;100.00;99862.09;5097839;28;20083;-45
2024/03/13 08:26:17;;;;;;;21.95;11.20;;;;;;;13.48;100.00;99863.34;5097674;28;20040;-45
2024/03/13 08:29:03;;;;;;;17.23;10.20;;;;;;;13.52;100.00;99869.34;5097753;28;20040;-46
2024/03/13 08:31:50;;;;;;;19.67;11.52;;;;;;;13.60;100.00;99865.03;5097747;28;20048;-47
2024/03/13 08:34:35;;;;;;;20.83;10.52;;;;;;;13.83;100.00;99865.94;5097641;28;20066;-46
2024/03/13 08:37:21;;;;;;;17.23;9.35;;;;;;;14.00;100.00;99860.06;5097396;28;20059;-45
2024/03/13 08:40:11;;;;;;;42.78;12.77;;;;;;;13.96;100.00;99861.28;5097217;28;20138;-46
2024/03/13 08:42:58;;;;;;;20.92;10.55;;;;;;;14.15;100.00;99860.66;5097969;28;20139;-46
2024/03/13 08:45:43;;;;;;;21.27;10.75;;;;;;;14.45;100.00;99856.47;5097378;28;20047;-46
2024/03/13 08:48:29;;;;;;;17.00;9.95;;;;;;;14.29;100.00;99859.53;5097073;28;20057;-47
2024/03/13 08:51:16;;;;;;;20.38;9.85;;;;;;;14.55;100.00;99860.09;5097029;28;20113;-46
2024/03/13 08:54:02;;;;;;;19.67;10.70;;;;;;;14.46;100.00;99852.81;5097323;28;20131;-45
2024/03/13 08:56:47;;;;;;;18.08;10.98;;;;;;;14.20;100.00;99863.81;5096822;28;20127;-48
2024/03/13 08:59:34;;;;;;;22.25;11.45;;;;;;;14.43;100.00;99850.34;5097233;28;20086;-46
2024/03/13 09:02:20;;;;;;;18.50;11.82;;;;;;;14.12;100.00;99871.63;5096951;28;20177;-46
2024/03/13 09:05:07;;;;;;;16.98;10.10;;;;;;;14.00;100.00;99876.16;5097054;28;20534;-47
2024/03/13 09:07:52;;;;;;;18.10;11.30;;;;;;;13.70;100.00;99868.75;5096946;28;20480;-46
2024/03/13 09:10:21;;;;;;;19.05;10.52;;;;;;;13.76;100.00;99878.09;5094271;28;20125;-45
2024/03/13 09:12:50;;;;;;;15.82;10.18;;;;;;;13.81;100.00;99875.06;5094126;28;20060;-48
2024/03/13 09:15:19;;;;;;;20.67;11.50;;;;;;;14.01;100.00;99882.38;5094109;28;20040;-45
2024/03/13 09:17:47;;;;;;;18.40;11.40;;;;;;;14.08;100.00;99878.19;5094021;28;20385;-46
2024/03/13 09:20:16;;;;;;;18.08;10.90;;;;;;;14.23;100.00;99876.97;5094489;28;20118;-46
2024/03/13 09:22:44;;;;;;;18.02;11.60;;;;;;;14.13;100.00;99888.56;5093256;28;20488;-45
2024/03/13 09:25:12;;;;;;;16.63;10.85;;;;;;;14.04;100.00;99887.47;5093756;28;20092;-45
2024/03/13 09:27:41;;;;;;;17.13;11.48;;;;;;;14.31;100.00;99879.88;5093414;28;20073;-46
2024/03/13 09:30:11;;;;;;;18.30;10.70;;;;;;;14.43;100.00;99879.88;5093670;28;20088;-47
2024/03/13 09:32:40;;;;;;;16.92;10.27;;;;;;;14.29;100.00;99884.53;5094051;28;20043;-45
2024/03/13 09:35:13;;;;;;;15.70;10.10;;;;;;;14.38;100.00;99882.94;5094163;28;20092;-45
2024/03/13 09:37:41;;;;;;;16.05;10.00;;;;;;;14.51;100.00;99888.16;5094629;28;20044;-47
2024/03/13 09:40:12;;;;;;;16.83;11.07;;;;;;;14.56;100.00;99885.94;5093956;28;20084;-45
2024/03/13 09:42:40;;;;;;;18.02;10.55;;;;;;;14.36;100.00;99884.88;5093837;28;20162;-45
2024/03/13 09:45:08;;;;;;;16.63;10.90;;;;;;;14.18;100.00;99889.88;5093476;28;20097;-46
2024/03/13 09:47:37;;;;;;;15.60;9.55;;;;;;;14.62;100.00;99893.50;5093631;28;20051;-46
2024/03/13 09:50:07;;;;;;;16.17;10.40;;;;;;;14.76;100.00;99886.97;5093855;28;20048;-47
2024/03/13 09:52:35;;;;;;;16.40;10.10;;;;;;;14.85;100.00;99883.53;5093788;28;20043;-47
2024/03/13 09:55:04;;;;;;;15.55;9.85;;;;;;;14.96;100.00;99885.31;5093559;28;20190;-46
2024/03/13 09:57:33;;;;;;;16.67;10.43;;;;;;;15.01;100.00;99888.47;5093406;28;20048;-45
2024/03/13 10:00:02;;;;;;;20.27;10.27;;;;;;;15.10;100.00;99882.31;5093566;28;20504;-46
2024/03/13 10:02:31;;;;;;;19.73;11.30;;;;;;;15.09;100.00;99891.38;5093740;28;20204;-48
2024/03/13 10:04:59;;;;;;;20.48;11.30;;;;;;;14.93;100.00;99893.63;5093480;28;20408;-45
2024/03/13 10:07:27;;;;;;;18.17;10.88;;;;;;;14.69;100.00;99894.72;5093382;28;20062;-46
2024/03/13 10:09:58;;;;;;;20.05;11.65;;;;;;;14.68;100.00;99898.38;5093823;28;20092;-46
2024/03/13 10:12:27;;;;;;;19.98;10.07;;;;;;;14.69;100.00;99892.03;5093164;28;20051;-46
2024/03/13 10:14:55;;;;;;;17.52;10.32;;;;;;;14.83;100.00;99880.13;5093520;28;20039;-46
2024/03/13 10:17:23;;;;;;;18.17;9.85;;;;;;;14.80;100.00;99881.25;5093317;28;20215;-46
2024/03/13 10:19:52;;;;;;;15.75;8.75;;;;;;;15.05;100.00;99881.84;5093310;28;20062;-45
2024/03/13 10:22:21;;;;;;;15.13;9.18;;;;;;;15.05;100.00;99889.91;5093209;28;20050;-46
2024/03/13 10:24:51;;;;;;;18.98;9.43;;;;;;;15.30;100.00;99886.00;5093279;28;20467;-45
2024/03/13 10:27:22;;;;;;;20.02;9.43;;;;;;;15.33;100.00;99885.72;5093790;28;20044;-46
2024/03/13 10:29:52;;;;;;;15.98;9.60;;;;;;;15.25;100.00;99889.09;5093832;28;20148;-45
2024/03/13 10:32:21;;;;;;;15.00;7.60;;;;;;;15.17;100.00;99888.88;5093539;28;20557;-47
2024/03/13 10:34:50;;;;;;;10.55;5.85;;;;;;;14.97;100.00;99881.66;5096016;28;20040;-45
2024/03/13 10:37:18;;;;;;;9.25;5.55;;;;;;;15.07;100.00;99890.66;5097092;28;20498;-45
2024/03/13 10:39:46;;;;;;;11.13;6.53;;;;;;;15.01;100.00;99883.09;5097498;28;20405;-45
2024/03/13 10:42:16;;;;;;;10.13;6.13;;;;;;;14.80;100.00;99886.63;5097333;28;20048;-45
2024/03/13 10:44:46;;;;;;;9.70;5.80;;;;;;;14.78;100.00;99888.56;5097852;28;20039;-45
2024/03/13 10:47:14;;;;;;;9.05;5.65;;;;;;;14.49;100.00;99887.44;5097590;28;20054;-44
2024/03/13 10:49:42;;;;;;;11.07;6.50;;;;;;;14.56;100.00;99888.63;5097163;28;20083;-47
2024/03/13 10:52:12;;;;;;;12.60;6.70;;;;;;;14.71;100.00;99884.69;5097201;28;20048;-45
2024/03/13 10:54:41;;;;;;;10.20;6.57;;;;;;;14.87;100.00;99887.81;5097265;28;20521;-45
2024/03/13 10:57:16;;;;;;;11.65;6.60;;;;;;;14.70;100.00;99891.03;5096894;28;20051;-46
2024/03/13 10:59:48;;;;;;;9.90;6.18;;;;;;;14.55;100.00;99892.28;5097728;28;20412;-46
2024/03/13 11:02:16;;;;;;;9.85;5.60;;;;;;;14.74;100.00;99883.56;5097018;28;20055;-46
2024/03/13 11:04:45;;;;;;;9.65;5.75;;;;;;;14.78;100.00;99880.53;5097091;28;20057;-49
2024/03/13 11:07:15;;;;;;;13.88;7.57;;;;;;;14.73;100.00;99881.88;5096537;28;20146;-46
2024/03/13 11:09:43;;;;;;;12.55;7.30;;;;;;;14.74;100.00;99881.75;5096909;28;20116;-45
2024/03/13 11:12:18;;;;;;;12.98;7.70;;;;;;;14.88;100.00;99878.78;5096252;28;20143;-45
2024/03/13 11:14:50;;;;;;;15.07;8.60;;;;;;;14.96;100.00;99891.56;5097360;28;20047;-46
2024/03/13 11:17:19;;;;;;;14.50;8.68;;;;;;;15.06;100.00;99878.22;5096452;28;20134;-47
2024/03/13 11:19:49;;;;;;;15.68;7.75;;;;;;;15.24;100.00;99875.75;5095999;28;20072;-46
2024/03/13 11:22:17;;;;;;;10.38;6.85;;;;;;;15.10;100.00;99876.94;5096235;28;20044;-48
2024/03/13 11:24:45;;;;;;;12.48;6.90;;;;;;;14.82;100.00;99879.28;5096360;28;20044;-46
2024/03/13 11:27:14;;;;;;;13.02;6.60;;;;;;;14.74;100.00;99875.53;5096195;28;20054;-49
2024/03/13 11:29:43;;;;;;;12.10;6.93;;;;;;;14.79;100.00;99874.16;5096123;28;20098;-46
2024/03/13 11:32:12;;;;;;;12.05;6.57;;;;;;;14.77;100.00;99873.44;5096535;28;20054;-47
2024/03/13 11:34:41;;;;;;;12.20;6.38;;;;;;;14.97;100.00;99870.94;5096030;28;20055;-45
2024/03/13 11:37:11;;;;;;;10.90;6.13;;;;;;;14.99;100.00;99869.81;5096034;28;20089;-46
2024/03/13 11:39:40;;;;;;;10.45;6.07;;;;;;;15.10;100.00;99871.59;5096285;28;20043;-47
2024/03/13 11:42:12;;;;;;;10.93;6.63;;;;;;;15.03;100.00;99867.69;5095986;28;20043;-46
2024/03/13 11:44:44;;;;;;;11.13;6.07;;;;;;;15.38;100.00;99860.19;5095762;28;20080;-46
2024/03/13 11:47:15;;;;;;;11.43;6.30;;;;;;;15.41;100.00;99865.28;5096044;28;20407;-47